createdAt,value
2019-06-10T00:01:36.801Z,14.00
2019-06-10T00:04:08.766Z,14.00
2019-06-10T00:06:37.699Z,13.80
2019-06-10T00:09:11.531Z,13.70
2019-06-10T00:11:41.068Z,13.70
2019-06-10T00:14:10.875Z,13.80
2019-06-10T00:16:41.657Z,13.80
2019-06-10T00:19:12.709Z,13.80
2019-06-10T00:21:42.567Z,13.70
2019-06-10T00:24:12.200Z,13.70
2019-06-10T00:26:41.846Z,13.60
2019-06-10T00:29:12.039Z,13.70
2019-06-10T00:31:41.898Z,13.70
2019-06-10T00:34:12.356Z,13.70
2019-06-10T00:36:42.289Z,13.80
2019-06-10T00:39:13.567Z,13.70
2019-06-10T00:41:43.169Z,13.70
2019-06-10T00:44:12.975Z,13.70
2019-06-10T00:46:42.647Z,13.70
2019-06-10T00:49:14.558Z,13.70
2019-06-10T00:51:43.535Z,13.60
2019-06-10T00:54:15.491Z,13.60
2019-06-10T00:56:44.623Z,13.60
2019-06-10T00:59:15.411Z,13.60
2019-06-10T01:01:45.100Z,13.60
2019-06-10T01:04:16.391Z,13.50
2019-06-10T01:06:46.008Z,13.60
2019-06-10T01:09:15.635Z,13.50
2019-06-10T01:11:45.255Z,13.60
2019-06-10T01:14:15.512Z,13.60
2019-06-10T01:16:45.377Z,13.50
2019-06-10T01:19:15.811Z,13.50
2019-06-10T01:21:45.613Z,13.50
2019-06-10T01:24:15.239Z,13.60
2019-06-10T01:26:44.880Z,13.50
2019-06-10T01:29:15.572Z,13.50
2019-06-10T01:31:45.231Z,13.60
2019-06-10T01:34:15.131Z,13.60
2019-06-10T01:36:44.877Z,13.60
2019-06-10T01:39:15.205Z,13.60
2019-06-10T01:41:45.799Z,13.50
2019-06-10T01:44:16.473Z,13.40
2019-06-10T01:46:46.707Z,13.30
2019-06-10T01:49:16.811Z,13.40
2019-06-10T01:51:47.689Z,13.40
2019-06-10T01:54:18.423Z,13.40
2019-06-10T01:56:48.155Z,13.40
2019-06-10T01:59:18.653Z,13.50
2019-06-10T02:02:01.721Z,13.50
2019-06-10T02:04:32.076Z,13.50
2019-06-10T02:07:01.844Z,13.50
2019-06-10T02:09:31.480Z,13.50
2019-06-10T02:12:02.198Z,13.40
2019-06-10T02:14:32.066Z,13.60
2019-06-10T02:17:01.679Z,13.60
2019-06-10T02:19:31.492Z,13.60
2019-06-10T02:22:02.240Z,13.60
2019-06-10T02:24:31.889Z,13.60
2019-06-10T02:27:01.526Z,13.60
2019-06-10T02:29:31.189Z,13.60
2019-06-10T02:32:04.522Z,13.70
2019-06-10T02:34:34.058Z,13.60
2019-06-10T02:37:04.717Z,13.70
2019-06-10T02:39:38.764Z,13.70
2019-06-10T02:42:30.676Z,13.80
2019-06-10T02:44:56.439Z,13.80
2019-06-10T02:47:32.112Z,13.80
2019-06-10T02:50:02.802Z,13.80
2019-06-10T02:52:32.507Z,13.60
2019-06-10T02:54:59.916Z,13.70
2019-06-10T02:57:35.142Z,13.90
2019-06-10T03:00:06.397Z,13.70
2019-06-10T03:02:36.193Z,13.80
2019-06-10T03:05:04.503Z,13.80
2019-06-10T03:07:35.711Z,13.80
2019-06-10T03:10:06.199Z,13.90
2019-06-10T03:12:35.829Z,14.00
2019-06-10T03:15:05.829Z,14.00
2019-06-10T03:17:35.470Z,14.10
2019-06-10T03:20:05.434Z,14.10
2019-06-10T03:22:35.059Z,14.20
2019-06-10T03:25:05.464Z,14.20
2019-06-10T03:27:35.147Z,14.20
2019-06-10T03:30:15.630Z,14.20
2019-06-10T03:32:41.001Z,14.20
2019-06-10T03:35:08.150Z,14.20
2019-06-10T03:37:37.778Z,14.10
2019-06-10T03:40:07.415Z,14.10
2019-06-10T03:42:37.042Z,14.20
2019-06-10T03:45:08.459Z,14.30
2019-06-10T03:47:38.251Z,14.40
2019-06-10T03:50:08.067Z,14.60
2019-06-10T03:52:37.675Z,14.60
2019-06-10T03:55:07.830Z,14.50
2019-06-10T03:57:38.519Z,14.60
2019-06-10T04:00:11.470Z,14.70
2019-06-10T04:02:39.984Z,14.70
2019-06-10T04:05:09.613Z,14.90
2019-06-10T04:07:39.319Z,14.80
2019-06-10T04:10:09.467Z,14.90
2019-06-10T04:12:39.115Z,14.90
2019-06-10T04:15:08.842Z,14.80
2019-06-10T04:17:38.491Z,15.00
2019-06-10T04:20:12.355Z,15.10
2019-06-10T04:22:39.841Z,15.20
2019-06-10T04:25:12.001Z,15.40
2019-06-10T04:27:42.481Z,15.50
2019-06-10T04:30:13.559Z,15.50
2019-06-10T04:32:43.759Z,15.40
2019-06-10T04:35:13.504Z,15.50
2019-06-10T04:37:43.243Z,15.60
2019-06-10T04:40:13.550Z,15.70
2019-06-10T04:42:43.691Z,15.90
2019-06-10T04:45:13.453Z,16.00
2019-06-10T04:47:43.300Z,16.10
2019-06-10T04:50:24.793Z,16.00
2019-06-10T04:52:44.809Z,16.10
2019-06-10T04:55:14.552Z,16.20
2019-06-10T04:57:44.227Z,16.20
2019-06-10T05:00:14.715Z,16.30
2019-06-10T05:02:44.536Z,16.30
2019-06-10T05:05:14.375Z,16.50
2019-06-10T05:07:44.060Z,16.60
2019-06-10T05:19:15.909Z,16.90
2019-06-10T05:21:45.547Z,16.90
2019-06-10T05:24:15.296Z,17.00
2019-06-10T05:26:44.912Z,17.20
2019-06-10T05:29:14.571Z,17.40
2019-06-10T05:31:44.215Z,17.60
2019-06-10T05:34:13.892Z,17.60
2019-06-10T05:36:43.887Z,17.50
2019-06-10T05:39:13.541Z,17.60
2019-06-10T05:41:43.443Z,17.60
2019-06-10T05:44:13.538Z,17.60
2019-06-10T05:46:43.649Z,17.80
2019-06-10T05:49:13.454Z,18.00
2019-06-10T05:51:43.116Z,18.10
2019-06-10T05:54:13.044Z,18.30
2019-06-10T05:56:43.358Z,18.20
2019-06-10T05:59:13.434Z,18.40
2019-06-10T06:01:43.383Z,18.60
2019-06-10T06:04:13.136Z,18.70
2019-06-10T06:06:45.130Z,18.70
2019-06-10T06:09:14.170Z,18.70
2019-06-10T06:11:43.855Z,18.80
2019-06-10T06:14:13.477Z,18.90
2019-06-10T06:16:43.558Z,18.70
2019-06-10T06:19:13.301Z,18.80
2019-06-10T06:21:47.551Z,19.10
2019-06-10T06:24:14.493Z,19.20
2019-06-10T06:26:44.135Z,19.30
2019-06-10T06:29:13.826Z,19.40
2019-06-10T06:31:43.466Z,19.50
2019-06-10T06:34:14.101Z,19.40
2019-06-10T06:36:43.887Z,19.40
2019-06-10T06:39:13.577Z,19.70
2019-06-10T06:41:43.284Z,19.80
2019-06-10T06:44:13.180Z,20.00
2019-06-10T06:46:43.216Z,19.80
2019-06-10T06:49:13.529Z,19.70
2019-06-10T06:51:54.733Z,19.70
2019-06-10T06:54:14.467Z,19.80
2019-06-10T06:56:44.135Z,19.90
2019-06-10T06:59:14.347Z,20.00
2019-06-10T07:01:44.493Z,20.10
2019-06-10T07:04:14.453Z,20.30
2019-06-10T07:06:44.121Z,20.20
2019-06-10T07:09:13.903Z,20.10
2019-06-10T07:11:45.367Z,20.30
2019-06-10T07:14:15.308Z,20.50
2019-06-10T07:16:46.536Z,20.60
2019-06-10T07:19:16.202Z,20.60
2019-06-10T07:22:05.632Z,20.70
2019-06-10T07:24:17.248Z,20.20
2019-06-10T07:26:54.065Z,20.50
2019-06-10T07:29:18.148Z,21.00
2019-06-10T07:31:50.256Z,21.30
2019-06-10T07:34:19.024Z,21.70
2019-06-10T07:36:48.820Z,21.90
2019-06-10T07:39:18.496Z,21.80
2019-06-10T07:41:48.211Z,22.00
2019-06-10T07:44:17.907Z,22.10
2019-06-10T07:46:47.510Z,21.90
2019-06-10T07:49:17.286Z,21.80
2019-06-10T07:51:46.999Z,21.70
2019-06-10T07:54:16.669Z,21.90
2019-06-10T07:56:50.451Z,21.80
2019-06-10T07:59:17.622Z,21.90
2019-06-10T08:01:51.447Z,22.50
2019-06-10T08:04:18.560Z,22.40
2019-06-10T08:06:49.989Z,22.50
2019-06-10T08:09:19.442Z,22.60
2019-06-10T08:11:49.118Z,23.00
2019-06-10T08:14:18.716Z,23.30
2019-06-10T08:16:48.675Z,23.70
2019-06-10T08:19:33.747Z,23.10
2019-06-10T08:21:49.752Z,23.20
2019-06-10T08:24:19.388Z,23.20
2019-06-10T08:26:49.013Z,22.90
2019-06-10T08:29:18.655Z,22.40
2019-06-10T08:31:49.968Z,22.20
2019-06-10T08:34:22.079Z,22.30
2019-06-10T08:36:54.174Z,22.90
2019-06-10T08:39:23.104Z,23.20
2019-06-10T08:41:52.985Z,23.20
2019-06-10T08:44:23.045Z,23.20
2019-06-10T08:46:52.916Z,23.30
2019-06-10T08:49:23.828Z,23.40
2019-06-10T08:51:53.863Z,23.30
2019-06-10T08:54:23.701Z,23.00
2019-06-10T08:56:54.023Z,22.70
2019-06-10T08:59:24.184Z,22.90
2019-06-10T09:01:56.691Z,23.30
2019-06-10T09:04:25.085Z,23.90
2019-06-10T09:06:54.741Z,24.30
2019-06-10T09:09:24.372Z,24.00
2019-06-10T09:11:54.840Z,23.30
2019-06-10T09:14:24.537Z,23.10
2019-06-10T09:16:54.548Z,23.30
2019-06-10T09:19:24.206Z,22.90
2019-06-10T09:21:56.309Z,23.10
2019-06-10T09:24:25.289Z,23.00
2019-06-10T09:26:55.162Z,22.60
2019-06-10T09:29:24.887Z,22.80
2019-06-10T09:31:55.871Z,22.70
2019-06-10T09:34:25.787Z,22.80
2019-06-10T09:36:56.916Z,22.80
2019-06-10T09:39:26.834Z,22.90
2019-06-10T09:42:02.266Z,23.40
2019-06-10T09:44:27.732Z,24.00
2019-06-10T09:47:02.761Z,24.70
2019-06-10T09:49:33.492Z,25.30
2019-06-10T09:52:03.326Z,25.50
2019-06-10T09:54:33.679Z,25.70
2019-06-10T09:57:03.454Z,25.50
2019-06-10T09:59:33.393Z,25.90
2019-06-10T10:02:06.324Z,25.80
2019-06-10T10:04:37.475Z,25.70
2019-06-10T10:07:08.181Z,26.20
2019-06-10T10:09:37.923Z,26.60
2019-06-10T10:12:07.522Z,27.00
2019-06-10T10:14:37.152Z,27.20
2019-06-10T10:17:06.921Z,27.00
2019-06-10T10:19:36.674Z,27.20
2019-06-10T10:22:06.319Z,26.90
2019-06-10T10:24:35.995Z,27.30
2019-06-10T10:27:09.255Z,26.70
2019-06-10T10:29:36.932Z,26.90
2019-06-10T10:32:06.561Z,26.50
2019-06-10T10:34:36.188Z,26.10
2019-06-10T10:37:05.844Z,26.60
2019-06-10T10:39:35.491Z,26.70
2019-06-10T10:42:05.228Z,27.20
2019-06-10T10:44:34.905Z,27.10
2019-06-10T10:47:04.546Z,27.30
2019-06-10T10:49:34.208Z,27.80
2019-06-10T10:52:03.886Z,27.60
2019-06-10T10:54:36.613Z,27.40
2019-06-10T10:57:04.872Z,27.80
2019-06-10T10:59:34.554Z,27.80
2019-06-10T11:02:04.281Z,28.00
2019-06-10T11:04:35.249Z,28.20
2019-06-10T11:07:04.882Z,27.80
2019-06-10T11:09:34.557Z,27.60
2019-06-10T11:12:04.899Z,27.90
2019-06-10T11:14:34.938Z,28.00
2019-06-10T11:17:04.712Z,27.80
2019-06-10T11:19:34.430Z,28.00
2019-06-10T11:22:04.027Z,28.40
2019-06-10T11:24:40.861Z,28.50
2019-06-10T11:27:05.002Z,28.90
2019-06-10T11:29:34.644Z,28.60
2019-06-10T11:32:04.522Z,28.20
2019-06-10T11:34:34.188Z,28.30
2019-06-10T11:37:03.816Z,28.50
2019-06-10T11:39:36.631Z,28.70
2019-06-10T11:42:04.859Z,28.90
2019-06-10T11:44:34.586Z,28.70
2019-06-10T11:47:04.247Z,28.40
2019-06-10T11:49:33.877Z,28.60
2019-06-10T11:52:03.566Z,28.70
2019-06-10T11:54:50.326Z,29.40
2019-06-10T11:57:04.551Z,28.60
2019-06-10T11:59:34.215Z,28.20
2019-06-10T12:02:05.900Z,27.90
2019-06-10T12:04:35.663Z,28.20
2019-06-10T12:07:05.388Z,28.20
2019-06-10T12:09:35.084Z,28.80
2019-06-10T12:12:04.756Z,28.80
2019-06-10T12:14:34.433Z,29.20
2019-06-10T12:17:34.847Z,28.80
2019-06-10T12:19:35.423Z,29.20
2019-06-10T12:22:07.537Z,29.20
2019-06-10T12:24:36.370Z,29.10
2019-06-10T12:27:06.044Z,29.70
2019-06-10T12:29:35.726Z,29.40
2019-06-10T12:32:07.188Z,29.20
2019-06-10T12:34:36.927Z,29.00
2019-06-10T12:37:11.156Z,28.80
2019-06-10T12:39:38.019Z,28.90
2019-06-10T12:42:10.962Z,28.30
2019-06-10T12:44:38.985Z,28.10
2019-06-10T12:47:08.689Z,28.00
2019-06-10T12:49:38.319Z,27.40
2019-06-10T12:52:08.005Z,27.30
2019-06-10T12:54:37.669Z,27.10
2019-06-10T12:57:07.355Z,26.60
2019-06-10T12:59:37.006Z,26.00
2019-06-10T13:02:19.067Z,25.60
2019-06-10T13:04:39.266Z,25.50
2019-06-10T13:07:09.445Z,25.40
2019-06-10T13:09:43.263Z,25.30
2019-06-10T13:12:13.074Z,25.30
2019-06-10T13:14:43.698Z,24.80
2019-06-10T13:17:13.561Z,24.20
2019-06-10T13:19:43.390Z,24.20
2019-06-10T13:22:13.131Z,24.20
2019-06-10T13:24:42.772Z,23.90
2019-06-10T13:27:12.442Z,24.30
2019-06-10T13:29:43.059Z,24.50
2019-06-10T13:32:13.546Z,24.10
2019-06-10T13:34:43.233Z,24.40
2019-06-10T13:37:16.115Z,24.70
2019-06-10T13:39:44.233Z,24.60
2019-06-10T13:42:14.586Z,25.00
2019-06-10T13:44:44.300Z,24.20
2019-06-10T13:47:14.964Z,24.10
2019-06-10T13:49:44.794Z,23.50
2019-06-10T13:52:16.779Z,22.80
2019-06-10T13:54:46.187Z,22.90
2019-06-10T13:57:16.260Z,23.10
2019-06-10T13:59:46.584Z,22.90
2019-06-10T14:02:16.645Z,23.30
2019-06-10T14:04:46.330Z,23.20
2019-06-10T14:07:17.250Z,23.60
2019-06-10T14:09:48.185Z,23.70
2019-06-10T14:12:17.929Z,23.80
2019-06-10T14:14:47.720Z,24.00
2019-06-10T14:17:19.374Z,23.90
2019-06-10T14:19:48.681Z,23.30
2019-06-10T14:22:18.439Z,22.60
2019-06-10T14:24:48.241Z,22.60
2019-06-10T14:27:21.315Z,23.00
2019-06-10T14:29:49.261Z,23.00
2019-06-10T14:32:18.948Z,22.80
2019-06-10T14:34:48.639Z,22.50
2019-06-10T14:37:32.335Z,22.40
2019-06-10T14:39:52.752Z,22.70
2019-06-10T14:42:23.135Z,23.10
2019-06-10T14:44:52.880Z,23.50
2019-06-10T14:47:22.973Z,24.10
2019-06-10T14:49:53.065Z,24.00
2019-06-10T14:52:22.858Z,24.30
2019-06-10T14:54:53.185Z,24.10
2019-06-10T14:57:23.114Z,24.40
2019-06-10T14:59:53.241Z,24.60
2019-06-10T15:02:23.128Z,25.00
2019-06-10T15:04:53.276Z,25.60
2019-06-10T15:07:23.761Z,25.10
2019-06-10T15:09:53.636Z,24.90
2019-06-10T15:12:23.259Z,24.80
2019-06-10T15:14:52.906Z,24.40
2019-06-10T15:17:22.564Z,24.40
2019-06-10T15:19:53.050Z,23.50
2019-06-10T15:22:23.561Z,23.30
2019-06-10T15:24:53.414Z,23.20
2019-06-10T15:27:30.236Z,23.00
2019-06-10T15:29:54.436Z,22.30
2019-06-10T15:32:33.768Z,22.10
2019-06-10T15:34:55.376Z,21.90
2019-06-10T15:37:28.642Z,21.80
2019-06-10T15:39:56.357Z,21.70
2019-06-10T15:42:26.040Z,21.70
2019-06-10T15:44:56.152Z,21.70
2019-06-10T15:47:26.519Z,21.60
2019-06-10T15:49:56.335Z,21.60
2019-06-10T15:52:26.009Z,21.40
2019-06-10T15:54:55.614Z,21.10
2019-06-10T15:57:38.890Z,21.00
2019-06-10T15:59:56.529Z,20.90
2019-06-10T16:02:26.244Z,20.70
2019-06-10T16:04:55.866Z,20.80
2019-06-10T16:07:25.737Z,20.70
2019-06-10T16:09:55.390Z,20.60
2019-06-10T16:12:26.903Z,20.60
2019-06-10T16:14:56.392Z,20.40
2019-06-10T16:17:26.034Z,20.40
2019-06-10T16:19:55.695Z,20.20
2019-06-10T16:22:26.326Z,20.10
2019-06-10T16:24:55.941Z,20.10
2019-06-10T16:27:43.600Z,20.20
2019-06-10T16:29:56.937Z,20.20
2019-06-10T16:32:26.613Z,20.30
2019-06-10T16:34:56.290Z,20.20
2019-06-10T16:37:27.140Z,20.20
2019-06-10T16:39:56.830Z,20.40
2019-06-10T16:42:27.615Z,20.30
2019-06-10T16:44:57.305Z,20.20
2019-06-10T16:47:27.386Z,19.90
2019-06-10T16:49:57.074Z,19.90
2019-06-10T16:52:27.505Z,19.90
2019-06-10T16:54:57.362Z,20.10
2019-06-10T16:57:27.323Z,20.00
2019-06-10T16:59:57.059Z,20.00
2019-06-10T17:02:26.948Z,20.00
2019-06-10T17:04:58.532Z,20.00
2019-06-10T17:07:29.191Z,20.10
2019-06-10T17:09:58.860Z,20.10
2019-06-10T17:12:28.525Z,20.00
2019-06-10T17:14:58.135Z,20.10
2019-06-10T17:17:28.649Z,19.90
2019-06-10T17:19:59.085Z,19.70
2019-06-10T17:22:30.253Z,19.70
2019-06-10T17:24:59.969Z,19.70
2019-06-10T17:27:29.741Z,19.60
2019-06-10T17:29:59.380Z,19.60
2019-06-10T17:32:30.070Z,19.50
2019-06-10T17:35:02.143Z,19.60
2019-06-10T17:37:33.633Z,19.60
2019-06-10T17:40:02.710Z,19.70
2019-06-10T17:42:38.046Z,19.50
2019-06-10T17:45:03.862Z,19.30
2019-06-10T17:47:34.623Z,19.40
2019-06-10T17:50:04.973Z,19.60
2019-06-10T17:52:38.016Z,19.50
2019-06-10T17:55:06.691Z,19.60
2019-06-10T17:57:36.360Z,19.70
2019-06-10T18:00:12.289Z,19.50
2019-06-10T18:02:42.557Z,19.40
2019-06-10T18:05:12.812Z,19.30
2019-06-10T18:07:42.515Z,19.30
2019-06-10T18:10:13.217Z,19.20
2019-06-10T18:12:43.004Z,19.30
2019-06-10T18:15:12.945Z,19.20
2019-06-10T18:17:42.730Z,19.20
2019-06-10T18:20:13.531Z,19.20
2019-06-10T18:22:43.383Z,19.30
2019-06-10T18:25:13.132Z,19.20
2019-06-10T18:27:42.762Z,19.20
2019-06-10T18:30:14.315Z,19.10
2019-06-10T18:32:44.114Z,19.10
2019-06-10T18:35:14.455Z,19.20
2019-06-10T18:37:44.099Z,19.20
2019-06-10T18:40:14.603Z,19.20
2019-06-10T18:42:44.487Z,19.20
2019-06-10T18:45:14.444Z,19.30
2019-06-10T18:47:44.121Z,19.20
2019-06-10T18:50:14.490Z,19.10
2019-06-10T18:52:44.136Z,19.00
2019-06-10T18:55:15.743Z,19.00
2019-06-10T18:57:45.459Z,19.00
2019-06-10T19:00:16.982Z,18.90
2019-06-10T19:02:46.673Z,18.80
2019-06-10T19:05:17.075Z,18.70
2019-06-10T19:07:46.908Z,18.60
2019-06-10T19:10:17.074Z,18.60
2019-06-10T19:12:46.734Z,18.60
2019-06-10T19:15:16.665Z,18.60
2019-06-10T19:17:46.471Z,18.60
2019-06-10T19:20:16.555Z,18.50
2019-06-10T19:22:46.230Z,18.40
2019-06-10T19:25:16.234Z,18.30
2019-06-10T19:27:45.902Z,18.20
2019-06-10T19:30:15.959Z,18.20
2019-06-10T19:32:45.649Z,18.20
2019-06-10T19:35:16.258Z,18.10
2019-06-10T19:37:45.925Z,18.10
2019-06-10T19:40:16.074Z,18.00
2019-06-10T19:42:45.738Z,18.10
2019-06-10T19:45:15.594Z,18.00
2019-06-10T19:47:45.830Z,18.00
2019-06-10T19:50:16.593Z,18.00
2019-06-10T19:52:46.259Z,17.90
2019-06-10T19:55:16.415Z,17.80
2019-06-10T19:57:46.051Z,17.80
2019-06-10T20:00:16.197Z,17.80
2019-06-10T20:02:46.973Z,17.70
2019-06-10T20:05:16.877Z,17.80
2019-06-10T20:07:50.298Z,17.70
2019-06-10T20:10:18.064Z,17.60
2019-06-10T20:12:47.693Z,17.70
2019-06-10T20:15:24.552Z,17.50
2019-06-10T20:17:54.280Z,17.50
2019-06-10T20:20:24.054Z,17.40
2019-06-10T20:22:57.216Z,17.20
2019-06-10T20:25:24.960Z,17.10
2019-06-10T20:27:54.601Z,17.10
2019-06-10T20:30:28.652Z,17.00
2019-06-10T20:32:56.476Z,17.00
2019-06-10T20:35:26.307Z,16.90
2019-06-10T20:37:55.960Z,16.80
2019-06-10T20:40:25.589Z,16.70
2019-06-10T20:42:55.264Z,16.70
2019-06-10T20:45:24.889Z,16.70
2019-06-10T20:47:54.475Z,16.70
2019-06-10T20:50:24.191Z,16.70
2019-06-10T20:52:53.840Z,16.60
2019-06-10T20:55:39.826Z,16.50
2019-06-10T20:58:02.992Z,16.50
2019-06-10T21:00:37.021Z,16.30
2019-06-10T21:03:07.038Z,16.20
2019-06-10T21:05:36.832Z,16.20
2019-06-10T21:08:06.790Z,16.10
2019-06-10T21:10:37.421Z,16.00
2019-06-10T21:13:07.249Z,16.00
2019-06-10T21:15:37.028Z,15.90
2019-06-10T21:18:06.848Z,16.00
2019-06-10T21:20:36.538Z,16.10
2019-06-10T21:23:06.281Z,16.30
2019-06-10T21:25:35.859Z,16.30
2019-06-10T21:28:05.500Z,16.30
2019-06-10T21:30:41.569Z,16.20
2019-06-10T21:33:06.434Z,16.20
2019-06-10T21:35:36.230Z,16.30
2019-06-10T21:38:05.927Z,16.20
2019-06-10T21:40:35.565Z,16.20
2019-06-10T21:43:05.286Z,16.20
2019-06-10T21:45:34.895Z,16.10
2019-06-10T21:48:04.620Z,16.00
2019-06-10T21:50:34.243Z,15.90
2019-06-10T21:53:04.004Z,16.00
2019-06-10T21:55:33.654Z,15.90
2019-06-10T21:58:03.979Z,15.90
2019-06-10T22:00:55.605Z,15.90
2019-06-10T22:03:14.733Z,15.90
2019-06-10T22:05:45.761Z,15.80
2019-06-10T22:08:15.561Z,15.80
2019-06-10T22:10:45.898Z,15.80
2019-06-10T22:13:15.603Z,15.80
2019-06-10T22:15:46.330Z,15.70
2019-06-10T22:18:16.058Z,15.70
2019-06-10T22:20:46.787Z,15.70
2019-06-10T22:23:16.454Z,15.60
2019-06-10T22:25:46.811Z,15.60
2019-06-10T22:28:16.501Z,15.70
2019-06-10T22:30:47.148Z,15.50
2019-06-10T22:33:16.774Z,15.50
2019-06-10T22:35:47.462Z,15.50
2019-06-10T22:38:17.109Z,15.50
2019-06-10T22:40:46.880Z,15.50
2019-06-10T22:43:16.583Z,15.50
2019-06-10T22:45:47.403Z,15.50
2019-06-10T22:48:17.512Z,15.40
2019-06-10T22:50:47.149Z,15.30
2019-06-10T22:53:16.801Z,15.40
2019-06-10T22:55:46.425Z,15.30
2019-06-10T22:58:16.084Z,15.20
2019-06-10T23:00:45.820Z,15.10
2019-06-10T23:03:15.503Z,15.10
2019-06-10T23:05:45.175Z,15.00
2019-06-10T23:08:14.851Z,15.00
2019-06-10T23:10:44.504Z,15.00
2019-06-10T23:13:17.022Z,15.00
2019-06-10T23:15:45.480Z,14.90
2019-06-10T23:18:15.162Z,14.90
2019-06-10T23:20:44.800Z,14.90
2019-06-10T23:23:14.502Z,14.90
2019-06-10T23:25:44.160Z,14.90
2019-06-10T23:28:13.873Z,14.80
2019-06-10T23:30:43.572Z,14.80
2019-06-10T23:33:13.163Z,14.70
2019-06-10T23:35:43.207Z,14.70
2019-06-10T23:38:13.373Z,14.70
2019-06-10T23:40:43.215Z,14.70
2019-06-10T23:43:13.353Z,14.60
2019-06-10T23:45:43.140Z,14.60
2019-06-10T23:48:13.412Z,14.60
2019-06-10T23:50:43.862Z,14.60
2019-06-10T23:53:13.489Z,14.60
2019-06-10T23:55:43.098Z,14.60
2019-06-10T23:58:13.148Z,14.60
